Fort Fisher Air Force Statio, North Carolina
Current Conditions -  °F | °C
As of 1:35 PM on Thursday 27 Nov 2014 (Local Time) from KSUT Reporting Station
Clear Clear  
Wind Chill: 54°   Ceiling: Unl
Heat Index: 54°   Visibility: 10mi
Dew Point: 35°   Wind: 17mph
Humidity: 50%   Direction: 300°WNW
Pressure: 30.02"   Gusts: 23mph
Location:  33.9736°N, 77.9221°W
Report Text: KSUT 271835Z AUTO 30015G20KT 10SM CLR 12/02 A3002 RMK AO2 T01220019
Loading
Personal Weather Stations






























Interactive Weather Map New forecast layout! Learn more

10-Day Weather Forecast

Advertisements
Track Severe Weather on mobile